Time;durP1;ratioP1;P1;durP2;ratioP2;P2;SDS_P1;SDS_P2;PMS_P1;PMS_P2;Temp;Humidity;BMP_temperature;BMP_pressure;BME280_temperature;BME280_humidity;BME280_pressure;Samples;Min_cycle;Max_cycle;Signal;HPM_P1;HPM_P2
2023/05/30 00:01:09;;;;;;;5.47;2.90;;;;;;;13.69;78.12;93816.38;5143746;28;20050;-76
2023/05/30 00:03:35;;;;;;;4.13;2.70;;;;;;;13.68;78.30;93815.63;5143525;28;20019;-75
2023/05/30 00:06:04;;;;;;;7.97;3.20;;;;;;;13.63;78.02;93815.81;5125567;28;20019;-77
2023/05/30 00:08:29;;;;;;;5.70;3.42;;;;;;;13.62;77.95;93817.72;5143575;28;20027;-76
2023/05/30 00:10:55;;;;;;;12.15;2.85;;;;;;;13.55;78.14;93812.13;5143925;28;20067;-77
2023/05/30 00:13:20;;;;;;;7.68;3.53;;;;;;;13.56;77.97;93807.56;5143770;28;20225;-77
2023/05/30 00:15:47;;;;;;;12.18;3.08;;;;;;;13.54;77.80;93821.28;5143647;28;20034;-76
2023/05/30 00:18:13;;;;;;;7.82;2.95;;;;;;;13.47;77.97;93828.28;5143456;28;20068;-76
2023/05/30 00:20:39;;;;;;;5.88;2.70;;;;;;;13.44;78.20;93824.38;5143601;28;20216;-76
2023/05/30 00:23:04;;;;;;;9.35;3.58;;;;;;;13.32;78.88;93830.47;5143442;28;20047;-76
2023/05/30 00:25:32;;;;;;;10.25;3.30;;;;;;;13.30;78.85;93832.72;5143503;28;20316;-77
2023/05/30 00:27:58;;;;;;;7.05;3.00;;;;;;;13.31;78.81;93828.94;5124309;28;20019;-80
2023/05/30 00:30:25;;;;;;;7.50;3.05;;;;;;;13.30;79.11;93821.22;5142425;28;20023;-79
2023/05/30 00:32:50;;;;;;;6.00;3.13;;;;;;;13.22;79.40;93817.50;5144253;27;20332;-78
2023/05/30 00:35:16;;;;;;;7.22;3.28;;;;;;;13.18;79.41;93830.75;5146534;27;20086;-78
2023/05/30 00:37:41;;;;;;;5.60;3.25;;;;;;;13.18;79.70;93828.06;5147348;27;20018;-78
2023/05/30 00:40:08;;;;;;;5.32;3.25;;;;;;;13.21;79.57;93832.78;5129139;27;20040;-78
2023/05/30 00:42:33;;;;;;;6.68;3.70;;;;;;;13.22;79.48;93836.22;5147573;27;20030;-78
2023/05/30 00:44:58;;;;;;;5.65;3.42;;;;;;;13.20;79.71;93831.19;5147437;27;20057;-77
2023/05/30 00:47:25;;;;;;;7.18;3.35;;;;;;;13.11;79.73;93829.69;5147311;27;20095;-77
2023/05/30 00:49:52;;;;;;;17.00;3.78;;;;;;;13.09;80.03;93826.56;5147265;27;20671;-77
2023/05/30 00:52:20;;;;;;;10.80;3.42;;;;;;;13.10;79.96;93826.25;5128809;27;20023;-77
2023/05/30 00:54:47;;;;;;;10.02;3.40;;;;;;;13.07;79.96;93834.16;5146901;27;20015;-77
2023/05/30 00:57:14;;;;;;;13.95;4.78;;;;;;;13.03;79.89;93834.03;5147270;27;20019;-77
2023/05/30 00:59:39;;;;;;;9.48;3.40;;;;;;;13.04;80.29;93833.69;5147190;27;20015;-77
2023/05/30 01:02:05;;;;;;;5.93;3.67;;;;;;;13.07;80.08;93831.47;5146874;27;20050;-78
2023/05/30 01:04:32;;;;;;;7.70;3.55;;;;;;;13.11;80.05;93840.41;5146923;27;20015;-75
2023/05/30 01:06:58;;;;;;;10.10;3.53;;;;;;;13.14;80.41;93840.53;5147190;27;20298;-75
2023/05/30 01:09:24;;;;;;;10.00;3.25;;;;;;;13.16;80.17;93832.19;5146968;27;20233;-77
2023/05/30 01:12:30;;;;;;;6.75;3.88;;;;;;;13.17;80.22;93826.50;5146834;27;20019;-76
2023/05/30 01:15:10;;;;;;;9.98;3.88;;;;;;;13.18;80.19;93824.63;5145947;27;20043;-80
2023/05/30 01:18:11;;;;;;;9.75;3.40;;;;;;;13.16;80.20;93821.47;5146786;27;20034;-76
2023/05/30 01:20:40;;;;;;;6.00;3.47;;;;;;;13.17;80.09;93823.06;5146664;27;20023;-76
2023/05/30 01:23:54;;;;;;;5.25;2.67;;;;;;;13.16;80.03;93821.47;5146532;27;20219;-76
2023/05/30 01:26:46;;;;;;;12.85;3.58;;;;;;;13.07;80.42;93818.91;5132722;27;20270;-76
2023/05/30 01:29:20;;;;;;;6.82;4.30;;;;;;;13.09;80.27;93810.53;5146469;27;20030;-76
2023/05/30 01:31:47;;;;;;;6.13;3.53;;;;;;;13.08;80.48;93812.41;5146505;27;20206;-76
2023/05/30 01:34:16;;;;;;;6.38;4.05;;;;;;;13.09;81.02;93814.00;5146415;27;20194;-76
2023/05/30 01:36:41;;;;;;;10.82;4.68;;;;;;;13.08;81.39;93814.31;5146125;27;20321;-77
2023/05/30 01:39:07;;;;;;;7.55;4.32;;;;;;;13.10;81.22;93817.44;5146422;27;20140;-77
2023/05/30 01:41:56;;;;;;;12.68;4.07;;;;;;;13.11;80.96;93810.97;5146138;27;20251;-77
2023/05/30 01:44:32;;;;;;;7.57;4.55;;;;;;;13.11;81.35;93816.31;5146179;27;20218;-76
2023/05/30 01:47:43;;;;;;;13.77;4.72;;;;;;;13.09;81.88;93807.84;5146327;27;20026;-77
2023/05/30 01:50:15;;;;;;;11.15;4.75;;;;;;;13.07;82.07;93807.38;5121928;27;20049;-77
2023/05/30 01:52:45;;;;;;;7.30;5.00;;;;;;;13.10;82.02;93809.41;5127729;27;20039;-77
2023/05/30 01:55:13;;;;;;;11.57;4.75;;;;;;;13.10;82.25;93812.88;5146001;27;20030;-77
2023/05/30 01:57:47;;;;;;;6.82;4.53;;;;;;;13.14;82.03;93807.66;5146098;27;20072;-77
2023/05/30 02:00:16;;;;;;;13.77;5.32;;;;;;;13.16;82.03;93826.84;5145852;27;20018;-77
2023/05/30 02:02:43;;;;;;;6.88;3.85;;;;;;;13.13;81.99;93832.88;5145773;27;20011;-77
2023/05/30 02:05:09;;;;;;;16.20;5.30;;;;;;;13.10;82.29;93825.47;5145793;27;20018;-77
2023/05/30 02:07:35;;;;;;;7.97;4.03;;;;;;;13.11;82.19;93830.50;5145650;27;20022;-76
2023/05/30 02:10:00;;;;;;;7.32;4.53;;;;;;;13.10;82.10;93830.84;5145644;27;20015;-77
2023/05/30 02:12:26;;;;;;;8.20;4.22;;;;;;;13.10;82.15;93841.53;5145919;27;20029;-77
2023/05/30 02:14:54;;;;;;;7.20;4.07;;;;;;;13.05;82.25;93837.94;5145455;27;20035;-78
2023/05/30 02:17:22;;;;;;;6.93;3.85;;;;;;;13.07;81.95;93842.19;5145493;27;20019;-78
2023/05/30 02:19:48;;;;;;;14.25;5.18;;;;;;;13.04;82.26;93836.38;5145571;27;20208;-78
2023/05/30 02:22:14;;;;;;;8.25;4.10;;;;;;;13.03;82.30;93842.06;5127085;27;20023;-78
2023/05/30 02:24:40;;;;;;;8.00;4.53;;;;;;;13.02;82.44;93833.25;5126838;27;20434;-77
2023/05/30 02:27:06;;;;;;;6.55;4.70;;;;;;;13.02;82.13;93832.47;5145333;27;20022;-78
2023/05/30 02:29:32;;;;;;;6.95;4.13;;;;;;;13.01;82.04;93834.38;5145277;27;20058;-78
2023/05/30 02:31:58;;;;;;;8.02;4.75;;;;;;;13.01;82.09;93837.03;5145335;27;20023;-78
2023/05/30 02:34:23;;;;;;;9.50;4.15;;;;;;;12.97;82.02;93836.13;5145280;27;20023;-79
2023/05/30 02:36:49;;;;;;;9.20;4.60;;;;;;;13.01;81.75;93830.91;5145236;27;20069;-78
2023/05/30 02:39:14;;;;;;;9.02;4.85;;;;;;;12.97;81.62;93836.13;5145285;27;20313;-78
2023/05/30 02:41:39;;;;;;;8.07;4.55;;;;;;;12.93;81.79;93835.22;5144950;27;20038;-76
2023/05/30 02:44:06;;;;;;;10.05;4.88;;;;;;;12.93;81.65;93835.22;5126608;27;20030;-76
2023/05/30 02:46:33;;;;;;;13.07;5.50;;;;;;;12.90;81.70;93835.88;5145077;27;20015;-76
2023/05/30 02:48:59;;;;;;;7.72;5.18;;;;;;;12.93;82.04;93829.09;5144848;27;20045;-76
2023/05/30 02:51:25;;;;;;;20.45;5.32;;;;;;;12.93;81.65;93829.88;5144973;27;20110;-76
2023/05/30 02:53:50;;;;;;;10.80;4.88;;;;;;;12.92;81.42;93830.97;5144542;27;20043;-76
2023/05/30 02:56:16;;;;;;;9.15;4.50;;;;;;;12.92;81.73;93830.19;5144240;27;20019;-76
2023/05/30 02:58:41;;;;;;;6.80;4.40;;;;;;;12.92;81.69;93822.94;5144448;27;20015;-76
2023/05/30 03:01:07;;;;;;;10.75;5.35;;;;;;;12.92;81.84;93830.97;5144322;27;20046;-75
2023/05/30 03:03:34;;;;;;;12.55;5.40;;;;;;;12.86;81.88;93829.59;5144070;27;20027;-76
2023/05/30 03:06:01;;;;;;;10.07;4.68;;;;;;;12.89;82.00;93826.28;5144550;27;20018;-77
2023/05/30 03:08:28;;;;;;;8.30;4.53;;;;;;;12.91;81.88;93826.75;5144712;27;20015;-77
2023/05/30 03:10:54;;;;;;;6.22;4.32;;;;;;;12.89;82.10;93820.94;5144383;27;20384;-77
2023/05/30 03:13:20;;;;;;;16.60;4.60;;;;;;;12.94;82.09;93825.31;5144501;27;20015;-77
2023/05/30 03:15:45;;;;;;;7.80;4.97;;;;;;;12.93;81.85;93827.19;5144246;27;20086;-77
2023/05/30 03:18:11;;;;;;;6.53;4.88;;;;;;;12.95;81.72;93826.88;5144414;27;20015;-78
2023/05/30 03:20:36;;;;;;;7.03;4.28;;;;;;;12.98;81.61;93826.97;5144163;27;20026;-78
2023/05/30 03:23:02;;;;;;;6.97;3.80;;;;;;;13.00;81.75;93824.75;5144231;27;20270;-78
2023/05/30 03:25:28;;;;;;;8.63;4.72;;;;;;;13.05;81.62;93821.91;5144282;27;20011;-78
2023/05/30 03:27:53;;;;;;;7.05;4.00;;;;;;;13.08;81.25;93833.06;5144147;27;20015;-78
2023/05/30 03:30:22;;;;;;;10.43;3.88;;;;;;;13.11;81.10;93835.06;5144122;27;20019;-79
2023/05/30 03:32:48;;;;;;;8.10;5.25;;;;;;;13.07;81.19;93837.63;5125729;27;20034;-78
2023/05/30 03:35:16;;;;;;;10.27;3.70;;;;;;;13.06;81.44;93830.69;5144059;27;20068;-78
2023/05/30 03:37:41;;;;;;;10.15;4.50;;;;;;;13.08;81.53;93835.72;5143932;27;20053;-78
2023/05/30 03:40:08;;;;;;;10.18;4.85;;;;;;;13.06;81.42;93833.38;5144009;27;20086;-78
2023/05/30 03:42:34;;;;;;;7.30;4.78;;;;;;;13.10;81.54;93844.22;5144037;27;20064;-78
2023/05/30 03:45:00;;;;;;;16.10;5.78;;;;;;;13.14;81.42;93845.13;5143973;27;20019;-78
2023/05/30 03:47:25;;;;;;;10.27;4.47;;;;;;;13.16;81.37;93850.91;5144079;27;20057;-79
2023/05/30 03:49:51;;;;;;;16.08;4.88;;;;;;;13.13;81.51;93856.94;5144019;27;20228;-80
2023/05/30 03:52:17;;;;;;;8.95;4.72;;;;;;;13.16;81.66;93850.91;5125508;27;20027;-77
2023/05/30 03:54:43;;;;;;;8.75;4.60;;;;;;;13.16;81.72;93859.72;5143762;27;20255;-76
2023/05/30 03:57:09;;;;;;;9.02;4.95;;;;;;;13.12;81.96;93858.03;5125355;27;20023;-77
2023/05/30 03:59:34;;;;;;;14.85;7.03;;;;;;;13.17;81.85;93857.84;5143875;27;20045;-75
2023/05/30 04:02:00;;;;;;;14.07;6.97;;;;;;;13.21;81.66;93861.44;5143728;28;20086;-77
2023/05/30 04:04:26;;;;;;;14.95;7.82;;;;;;;13.26;81.48;93858.53;5143747;28;20095;-76
2023/05/30 04:06:51;;;;;;;9.95;7.20;;;;;;;13.33;81.33;93853.47;5143704;27;20349;-76
2023/05/30 04:09:17;;;;;;;11.05;6.63;;;;;;;13.39;81.12;93856.72;5147639;27;20023;-75
2023/05/30 04:11:43;;;;;;;11.50;5.55;;;;;;;13.39;81.14;93862.88;5147832;27;20269;-75
2023/05/30 04:14:08;;;;;;;7.57;3.67;;;;;;;13.42;80.94;93862.19;5147842;27;20023;-76
2023/05/30 04:16:34;;;;;;;8.07;4.03;;;;;;;13.48;80.63;93875.38;5147846;27;20312;-75
2023/05/30 04:18:59;;;;;;;6.80;4.22;;;;;;;13.53;80.07;93875.16;5147859;27;20029;-75
2023/05/30 04:21:26;;;;;;;10.43;5.00;;;;;;;13.59;80.01;93868.47;5147939;27;20022;-74
2023/05/30 04:23:51;;;;;;;11.05;4.78;;;;;;;13.64;80.18;93873.63;5129167;27;20352;-77
2023/05/30 04:26:17;;;;;;;8.55;4.20;;;;;;;13.70;80.13;93876.84;5147708;27;20015;-77
2023/05/30 04:28:43;;;;;;;6.63;3.95;;;;;;;13.73;79.48;93890.38;5147641;27;20014;-77
2023/05/30 04:31:10;;;;;;;14.80;4.78;;;;;;;13.77;79.37;93888.59;5147483;27;20030;-76
2023/05/30 04:33:36;;;;;;;9.35;3.80;;;;;;;13.84;79.28;93880.03;5147349;27;20216;-77
2023/05/30 04:36:05;;;;;;;6.28;3.83;;;;;;;13.89;79.14;93887.06;5147582;27;20090;-78
2023/05/30 04:38:34;;;;;;;7.22;3.95;;;;;;;13.94;79.28;93884.97;5147316;27;20023;-77
2023/05/30 04:41:03;;;;;;;9.35;5.00;;;;;;;14.02;79.46;93883.28;5147342;27;20030;-75
2023/05/30 04:43:30;;;;;;;9.57;4.68;;;;;;;14.12;79.38;93888.19;5129020;27;20064;-76
2023/05/30 04:45:55;;;;;;;7.55;4.45;;;;;;;14.25;78.97;93883.66;5147367;27;20030;-76
2023/05/30 04:48:22;;;;;;;8.05;4.70;;;;;;;14.33;78.25;93885.44;5147105;27;20023;-77
2023/05/30 04:50:48;;;;;;;8.70;4.65;;;;;;;14.46;77.79;93896.94;5147304;27;20332;-76
2023/05/30 04:53:15;;;;;;;10.30;4.93;;;;;;;14.49;77.50;93898.94;5147116;27;20095;-76
2023/05/30 04:55:44;;;;;;;14.43;4.93;;;;;;;14.59;76.78;93892.34;5147273;27;20019;-78
2023/05/30 04:58:11;;;;;;;8.75;4.80;;;;;;;14.66;76.20;93897.94;5147259;27;20022;-76
2023/05/30 05:00:36;;;;;;;7.93;4.20;;;;;;;14.77;75.92;93896.34;5147352;27;20015;-77
2023/05/30 05:03:02;;;;;;;8.30;4.30;;;;;;;14.84;75.78;93910.00;5146991;27;20022;-76
2023/05/30 05:05:28;;;;;;;13.95;5.20;;;;;;;14.96;75.42;93905.69;5146891;27;20038;-77
2023/05/30 05:08:00;;;;;;;12.90;5.10;;;;;;;15.01;75.04;93916.22;5146849;27;20217;-76
2023/05/30 05:10:26;;;;;;;8.27;5.30;;;;;;;15.05;75.13;93907.13;5146836;27;20015;-78
2023/05/30 05:12:51;;;;;;;10.05;4.60;;;;;;;15.12;75.22;93911.16;5147016;27;20026;-74
2023/05/30 05:15:17;;;;;;;10.43;4.57;;;;;;;15.14;75.73;93915.09;5146961;27;20011;-78
2023/05/30 05:17:43;;;;;;;19.20;4.75;;;;;;;15.13;75.72;93912.72;5147060;27;20205;-76
2023/05/30 05:20:09;;;;;;;9.43;4.65;;;;;;;15.14;75.29;93920.44;5146484;27;20022;-73
2023/05/30 05:22:35;;;;;;;10.85;5.05;;;;;;;15.17;75.71;93918.97;5146604;27;20068;-73
2023/05/30 05:25:01;;;;;;;8.52;5.32;;;;;;;15.22;75.60;93926.78;5146989;27;20059;-73
2023/05/30 05:27:27;;;;;;;10.95;5.05;;;;;;;15.29;75.50;93928.91;5147137;27;20034;-74
2023/05/30 05:29:52;;;;;;;23.73;11.27;;;;;;;15.33;75.68;93930.56;5146671;27;20015;-73
2023/05/30 05:32:18;;;;;;;11.23;5.55;;;;;;;15.39;76.29;93928.44;5146689;27;20023;-73
2023/05/30 05:34:43;;;;;;;14.88;5.43;;;;;;;15.44;76.79;93937.00;5146653;27;20033;-73
2023/05/30 05:37:09;;;;;;;14.30;5.78;;;;;;;15.52;76.82;93931.84;5146597;27;20051;-73
2023/05/30 05:39:34;;;;;;;14.93;5.75;;;;;;;15.62;77.32;93934.03;5128318;27;20023;-73
2023/05/30 05:42:01;;;;;;;28.98;6.57;;;;;;;15.76;77.40;93933.66;5146347;27;20039;-73
2023/05/30 05:44:27;;;;;;;10.52;5.70;;;;;;;15.88;77.39;93924.78;5146749;27;20049;-72
2023/05/30 05:46:53;;;;;;;21.92;5.85;;;;;;;16.04;75.85;93933.63;5146410;27;20019;-72
2023/05/30 05:49:18;;;;;;;13.88;5.57;;;;;;;16.22;75.01;93932.16;5146329;27;20094;-73
2023/05/30 05:51:44;;;;;;;11.90;5.03;;;;;;;16.37;73.16;93935.22;5146296;27;20026;-73
2023/05/30 05:54:10;;;;;;;12.73;5.78;;;;;;;16.51;70.45;93940.94;5146535;27;20301;-74
2023/05/30 05:56:36;;;;;;;8.35;5.03;;;;;;;16.60;70.20;93936.13;5146097;27;20374;-74
2023/05/30 05:59:01;;;;;;;12.40;5.00;;;;;;;16.74;70.14;93943.00;5146109;27;20026;-74
2023/05/30 06:01:26;;;;;;;11.43;6.40;;;;;;;16.87;70.08;93933.69;5146405;27;20261;-72
2023/05/30 06:03:52;;;;;;;11.23;5.85;;;;;;;17.01;70.76;93931.31;5146108;27;20058;-72
2023/05/30 06:06:17;;;;;;;16.83;5.38;;;;;;;17.19;70.08;93936.31;5146077;27;20284;-72
2023/05/30 06:08:46;;;;;;;12.93;5.43;;;;;;;17.28;68.22;93938.78;5146011;27;20330;-73
2023/05/30 06:11:11;;;;;;;10.00;5.30;;;;;;;17.32;68.25;93943.13;5127692;27;20317;-72
2023/05/30 06:13:37;;;;;;;22.42;6.28;;;;;;;17.45;67.73;93935.69;5146028;27;20034;-73
2023/05/30 06:16:02;;;;;;;20.85;6.88;;;;;;;17.44;67.66;93942.19;5145824;27;20023;-74
2023/05/30 06:18:28;;;;;;;10.90;6.00;;;;;;;17.45;68.43;93936.47;5145737;27;20023;-73
2023/05/30 06:20:53;;;;;;;26.17;6.28;;;;;;;17.48;67.28;93942.28;5145929;27;20027;-75
2023/05/30 06:23:19;;;;;;;20.42;7.80;;;;;;;17.52;66.88;93938.50;5144022;27;20054;-76
2023/05/30 06:25:45;;;;;;;20.52;6.45;;;;;;;17.48;67.49;93942.28;5145463;27;20011;-73
2023/05/30 06:28:10;;;;;;;20.75;8.32;;;;;;;17.51;67.40;93947.75;5127253;27;20060;-74
2023/05/30 06:30:36;;;;;;;21.67;8.00;;;;;;;17.62;67.64;93943.34;5144888;27;20263;-74
2023/05/30 06:33:03;;;;;;;17.40;5.90;;;;;;;17.74;67.33;93950.50;5145646;27;20041;-74
2023/05/30 06:35:28;;;;;;;15.20;5.50;;;;;;;17.84;67.14;93944.56;5143913;27;20228;-74
2023/05/30 06:37:54;;;;;;;13.98;5.45;;;;;;;18.05;67.08;93948.78;5143707;27;20034;-73
2023/05/30 06:40:19;;;;;;;12.73;5.32;;;;;;;18.24;66.64;93956.84;5143820;27;20203;-74
2023/05/30 06:42:45;;;;;;;27.27;7.18;;;;;;;18.41;65.80;93952.88;5143489;27;20098;-74
2023/05/30 06:45:10;;;;;;;22.67;6.15;;;;;;;18.51;65.17;93954.22;5144092;27;20087;-74
2023/05/30 06:47:36;;;;;;;15.30;5.85;;;;;;;18.64;64.57;93957.50;5144073;27;20305;-74
2023/05/30 06:50:01;;;;;;;12.25;5.18;;;;;;;18.73;63.69;93962.66;5144379;27;20079;-74
2023/05/30 06:52:27;;;;;;;20.38;6.20;;;;;;;18.76;63.21;93961.91;5145165;27;20298;-74
2023/05/30 06:54:52;;;;;;;20.95;6.22;;;;;;;18.73;62.93;93966.13;5126937;27;20027;-74
2023/05/30 06:57:17;;;;;;;28.52;7.63;;;;;;;18.77;62.86;93966.97;5145055;27;20236;-74
2023/05/30 06:59:43;;;;;;;13.95;5.75;;;;;;;18.83;62.79;93964.78;5144981;27;20015;-74
2023/05/30 07:02:10;;;;;;;21.85;6.55;;;;;;;18.87;62.54;93962.91;5126709;27;20098;-74
2023/05/30 07:04:36;;;;;;;28.38;7.32;;;;;;;18.87;62.59;93962.91;5144201;27;20015;-77
2023/05/30 07:07:02;;;;;;;18.45;6.53;;;;;;;19.00;62.43;93964.25;5143375;27;20190;-77
2023/05/30 07:09:28;;;;;;;12.88;6.18;;;;;;;19.13;61.79;93967.53;5144649;27;20060;-77
2023/05/30 07:11:53;;;;;;;20.88;6.13;;;;;;;19.21;61.16;93973.78;5144808;27;20199;-77
2023/05/30 07:14:19;;;;;;;15.43;6.15;;;;;;;19.33;60.37;93965.47;5144461;27;20015;-77
2023/05/30 07:16:44;;;;;;;14.57;6.60;;;;;;;19.42;60.58;93965.22;5144225;27;20293;-77
2023/05/30 07:19:10;;;;;;;23.67;6.68;;;;;;;19.53;60.61;93974.22;5126094;27;20019;-77
2023/05/30 07:21:36;;;;;;;15.10;6.78;;;;;;;19.64;59.57;93974.34;5144425;27;20098;-77
2023/05/30 07:24:01;;;;;;;43.42;8.40;;;;;;;19.67;59.31;93975.56;5125640;27;20352;-77
2023/05/30 07:26:27;;;;;;;15.45;7.15;;;;;;;19.73;59.06;93983.00;5144412;27;20022;-78
2023/05/30 07:28:53;;;;;;;21.60;7.53;;;;;;;19.80;59.56;93972.28;5144144;27;20043;-76
2023/05/30 07:31:19;;;;;;;18.55;9.25;;;;;;;19.89;59.79;93982.81;5144197;27;20317;-77
2023/05/30 07:33:44;;;;;;;24.50;8.00;;;;;;;20.00;59.64;93975.59;5125902;27;20027;-77
2023/05/30 07:36:11;;;;;;;26.63;8.55;;;;;;;20.12;58.62;93979.19;5144149;27;20026;-78
2023/05/30 07:38:37;;;;;;;20.55;8.60;;;;;;;20.24;58.93;93982.41;5144127;27;20088;-77
2023/05/30 07:41:02;;;;;;;20.00;8.13;;;;;;;20.37;58.36;93976.72;5143861;27;20097;-77
2023/05/30 07:43:28;;;;;;;25.02;8.15;;;;;;;20.43;58.75;93983.38;5143920;27;20023;-76
2023/05/30 07:45:53;;;;;;;27.20;9.05;;;;;;;20.60;58.02;93976.59;5144180;27;20127;-77
2023/05/30 07:48:19;;;;;;;23.25;9.45;;;;;;;20.77;57.58;93981.38;5143636;27;20054;-77
2023/05/30 07:50:44;;;;;;;36.58;9.57;;;;;;;20.74;56.58;93986.75;5144014;27;20082;-77
2023/05/30 07:53:10;;;;;;;25.90;7.97;;;;;;;20.82;56.81;93977.53;5144138;27;20133;-76
2023/05/30 07:55:35;;;;;;;29.05;7.78;;;;;;;20.90;56.93;93976.44;5143538;27;20064;-77
2023/05/30 07:58:00;;;;;;;18.88;7.00;;;;;;;21.02;56.11;93973.47;5143871;27;20086;-77
2023/05/30 08:00:26;;;;;;;16.27;6.68;;;;;;;21.12;56.21;93979.31;5144071;27;20309;-77
2023/05/30 08:02:51;;;;;;;19.42;6.03;;;;;;;21.20;54.94;93980.91;5143799;27;20023;-76
2023/05/30 08:05:17;;;;;;;21.98;6.22;;;;;;;21.33;54.35;93987.59;5143512;27;20027;-77
2023/05/30 08:07:42;;;;;;;15.07;4.78;;;;;;;21.41;53.39;93975.63;5125542;28;20054;-76
2023/05/30 08:10:08;;;;;;;19.33;6.03;;;;;;;21.53;54.04;93979.97;5143813;28;20068;-76
2023/05/30 08:12:33;;;;;;;23.92;4.93;;;;;;;21.64;53.49;93969.97;5143656;28;20030;-76
2023/05/30 08:14:59;;;;;;;13.98;4.97;;;;;;;21.79;53.19;93976.22;5143447;28;20023;-76
2023/05/30 08:17:25;;;;;;;16.45;5.13;;;;;;;21.98;53.10;93974.34;5143750;28;20034;-77
2023/05/30 08:19:55;;;;;;;14.80;5.15;;;;;;;22.14;52.10;93979.44;5143607;28;20027;-76
2023/05/30 08:22:21;;;;;;;17.65;5.18;;;;;;;22.22;52.14;93984.50;5125180;28;20027;-77
2023/05/30 08:24:55;;;;;;;29.45;5.75;;;;;;;22.28;50.93;93990.34;5143693;28;20026;-77
2023/05/30 08:27:21;;;;;;;22.45;5.60;;;;;;;22.26;49.94;93991.91;5143422;28;20090;-76
2023/05/30 08:29:49;;;;;;;17.13;5.50;;;;;;;22.22;49.74;93983.72;5125215;28;20019;-76
2023/05/30 08:32:16;;;;;;;12.90;3.95;;;;;;;22.15;48.71;93984.47;5143432;28;20328;-76
2023/05/30 08:34:41;;;;;;;14.10;4.85;;;;;;;22.17;48.81;93982.16;5143442;28;20023;-76
2023/05/30 08:37:07;;;;;;;13.25;4.18;;;;;;;22.23;50.12;93980.66;5143565;28;20086;-76
2023/05/30 08:39:33;;;;;;;15.35;5.20;;;;;;;22.02;48.66;93980.56;5143208;28;20198;-76
2023/05/30 08:42:00;;;;;;;16.92;4.75;;;;;;;21.88;49.72;93975.88;5143405;28;20251;-75
2023/05/30 08:44:25;;;;;;;19.08;5.18;;;;;;;21.97;50.72;93987.13;5143527;28;20030;-77
2023/05/30 08:46:51;;;;;;;11.30;5.40;;;;;;;22.14;51.08;93969.34;5143584;28;20019;-76
2023/05/30 08:49:21;;;;;;;13.55;5.35;;;;;;;22.31;49.40;93973.31;5143401;28;20110;-76
2023/05/30 08:51:48;;;;;;;22.77;5.05;;;;;;;22.48;48.65;93977.22;5143313;28;20049;-76
2023/05/30 08:54:21;;;;;;;13.65;5.43;;;;;;;22.39;47.90;93979.53;5145322;27;20224;-77
2023/05/30 08:56:54;;;;;;;10.13;5.57;;;;;;;22.15;48.05;93981.78;5147019;27;20048;-77
2023/05/30 08:59:24;;;;;;;18.33;6.60;;;;;;;21.98;49.48;93977.84;5147223;27;20022;-77
2023/05/30 09:01:50;;;;;;;13.30;5.32;;;;;;;22.05;50.04;93977.09;5128448;27;20251;-77
2023/05/30 09:04:17;;;;;;;12.35;5.15;;;;;;;22.26;49.50;93981.06;5128325;27;20348;-77
2023/05/30 09:06:45;;;;;;;13.48;5.07;;;;;;;22.46;48.85;93976.81;5146947;27;20301;-76
2023/05/30 09:09:13;;;;;;;20.83;5.80;;;;;;;22.61;50.85;93978.41;5146902;27;20233;-77
2023/05/30 09:11:40;;;;;;;18.92;5.82;;;;;;;22.71;50.28;93989.66;5146573;27;20035;-77
2023/05/30 09:14:06;;;;;;;19.02;5.72;;;;;;;22.90;50.46;93992.00;5128377;27;20047;-77
2023/05/30 09:16:31;;;;;;;20.10;6.03;;;;;;;22.97;50.46;93980.34;5146810;27;20034;-76
2023/05/30 09:18:57;;;;;;;14.30;5.72;;;;;;;22.98;49.64;93982.69;5146839;27;20086;-76
2023/05/30 09:21:23;;;;;;;19.17;6.40;;;;;;;22.83;50.14;93981.88;5128766;27;20290;-77
2023/05/30 09:23:50;;;;;;;18.95;6.25;;;;;;;22.88;51.45;93993.53;5146519;27;20057;-77
2023/05/30 09:26:15;;;;;;;20.35;7.88;;;;;;;22.97;50.55;93983.84;5146766;27;20295;-77
2023/05/30 09:28:45;;;;;;;23.65;8.23;;;;;;;22.86;49.76;93980.34;5146693;27;20019;-77
2023/05/30 09:31:10;;;;;;;19.63;7.57;;;;;;;22.63;50.41;93978.00;5128264;27;20042;-77
2023/05/30 09:33:50;;;;;;;16.85;8.10;;;;;;;22.38;50.58;93972.53;5146519;27;20026;-77
2023/05/30 09:36:20;;;;;;;16.95;6.30;;;;;;;22.30;51.73;93973.69;5146332;27;20304;-76
2023/05/30 09:38:55;;;;;;;20.45;5.28;;;;;;;22.42;51.83;93976.03;5146422;27;20048;-77
2023/05/30 09:41:22;;;;;;;18.73;6.18;;;;;;;22.57;52.25;93983.06;5146196;27;20202;-77
2023/05/30 09:43:53;;;;;;;11.65;4.88;;;;;;;22.78;51.13;93968.69;5146299;27;20329;-77
2023/05/30 09:46:20;;;;;;;11.38;5.85;;;;;;;22.93;49.79;93974.13;5146165;27;20094;-77
2023/05/30 09:48:46;;;;;;;18.73;5.38;;;;;;;22.87;49.74;93975.69;5146137;27;20306;-74
2023/05/30 09:51:11;;;;;;;16.48;5.80;;;;;;;22.93;50.29;93972.19;5146510;27;20059;-74
2023/05/30 09:53:37;;;;;;;10.45;5.45;;;;;;;23.20;50.17;93969.06;5146358;27;20026;-75
2023/05/30 09:56:03;;;;;;;16.40;7.38;;;;;;;23.42;49.96;93962.44;5127682;27;20094;-78
2023/05/30 09:58:29;;;;;;;15.85;5.78;;;;;;;23.61;49.45;93968.59;5146394;27;20046;-81
2023/05/30 10:00:57;;;;;;;25.77;6.68;;;;;;;23.77;48.21;93960.03;5128017;27;20317;-80
2023/05/30 10:03:44;;;;;;;12.68;5.88;;;;;;;23.96;48.91;93967.72;5146206;27;20023;-81
2023/05/30 10:06:14;;;;;;;21.33;6.18;;;;;;;24.24;48.22;93955.13;5144838;27;20038;-81
2023/05/30 10:08:45;;;;;;;12.95;5.45;;;;;;;24.44;46.50;93952.69;5127670;27;20027;-80
2023/05/30 10:11:11;;;;;;;13.10;5.65;;;;;;;24.40;46.33;93955.44;5145867;27;20213;-81
2023/05/30 10:13:37;;;;;;;14.65;5.82;;;;;;;24.33;46.25;93951.97;5145729;27;20023;-81
2023/05/30 10:16:08;;;;;;;17.30;5.32;;;;;;;24.45;46.24;93956.19;5127373;27;20019;-78
2023/05/30 10:18:39;;;;;;;11.70;4.82;;;;;;;24.59;47.20;93958.84;5145959;27;20324;-78
2023/05/30 10:21:07;;;;;;;18.83;4.87;;;;;;;24.59;46.06;93965.06;5145883;27;20026;-79
2023/05/30 10:23:33;;;;;;;11.88;4.55;;;;;;;24.60;45.13;93958.44;5145755;27;20616;-77
2023/05/30 10:26:02;;;;;;;17.30;4.43;;;;;;;24.41;44.58;93948.03;5127452;27;20022;-77
2023/05/30 10:28:29;;;;;;;12.65;4.03;;;;;;;24.20;46.12;93952.44;5145646;27;20023;-76
2023/05/30 10:30:56;;;;;;;16.48;4.25;;;;;;;24.45;45.99;93948.03;5145744;27;20014;-79
2023/05/30 10:33:25;;;;;;;10.90;4.13;;;;;;;24.49;44.69;93946.81;5145607;27;20015;-79
2023/05/30 10:35:51;;;;;;;17.15;4.43;;;;;;;24.56;44.09;93941.34;5125987;27;20329;-81
2023/05/30 10:38:18;;;;;;;10.95;4.35;;;;;;;24.51;43.45;93941.78;5145514;27;20094;-82
2023/05/30 10:40:59;;;;;;;9.93;4.00;;;;;;;24.56;43.95;93938.59;5145502;27;20022;-81
2023/05/30 10:43:40;;;;;;;13.30;3.83;;;;;;;24.57;44.28;93940.19;5145432;27;20027;-80
2023/05/30 10:46:32;;;;;;;15.60;4.03;;;;;;;24.58;44.53;93933.53;5145276;27;20019;-82
2023/05/30 10:49:08;;;;;;;12.65;4.63;;;;;;;24.22;44.36;93931.03;5126991;27;20195;-82
2023/05/30 10:52:00;;;;;;;8.35;4.15;;;;;;;23.94;45.47;93931.97;5126881;27;20086;-80
2023/05/30 10:54:28;;;;;;;10.27;3.90;;;;;;;24.09;44.37;93935.38;5126940;27;20094;-81
2023/05/30 10:56:53;;;;;;;17.48;4.10;;;;;;;24.06;44.06;93925.31;5126939;27;20033;-78
2023/05/30 10:59:20;;;;;;;7.88;4.07;;;;;;;24.01;43.66;93922.97;5145092;27;20023;-81
2023/05/30 11:02:07;;;;;;;10.70;3.67;;;;;;;23.70;44.36;93917.28;5145084;27;20225;-81
2023/05/30 11:04:42;;;;;;;5.70;3.33;;;;;;;23.79;44.34;93914.16;5145009;27;20027;-81
2023/05/30 11:07:09;;;;;;;11.35;2.90;;;;;;;23.91;43.88;93915.66;5145124;27;20047;-81
2023/05/30 11:09:43;;;;;;;21.90;3.95;;;;;;;23.98;44.23;93915.63;5144872;27;20023;-81
2023/05/30 11:12:21;;;;;;;19.30;3.05;;;;;;;23.97;45.70;93905.91;5144878;27;20026;-83
2023/05/30 11:14:55;;;;;;;6.97;2.83;;;;;;;23.87;45.11;93893.13;5126500;27;20031;-79
2023/05/30 11:17:32;;;;;;;9.43;2.40;;;;;;;23.79;45.36;93897.81;5144366;27;20027;-79
2023/05/30 11:20:16;;;;;;;5.70;2.38;;;;;;;23.94;45.42;93891.13;5144932;27;20023;-79
2023/05/30 11:23:01;;;;;;;7.40;2.20;;;;;;;23.93;44.27;93886.09;5144960;27;20065;-80
2023/05/30 11:25:29;;;;;;;3.63;2.33;;;;;;;23.93;44.61;93883.38;5145058;27;20019;-78
2023/05/30 11:28:15;;;;;;;11.93;2.47;;;;;;;24.03;43.91;93868.91;5144738;27;20025;-80
2023/05/30 11:30:46;;;;;;;19.23;4.03;;;;;;;24.18;45.02;93881.28;5144645;27;20052;-79